sensor_id;sensor_type;location;lat;lon;timestamp;temperature;humidity
4809;DHT22;2418;49.930;8.606;2022-11-03T00:02:17;6.00;99.20
4809;DHT22;2418;49.930;8.606;2022-11-03T00:04:42;5.90;99.20
4809;DHT22;2418;49.930;8.606;2022-11-03T00:07:08;5.90;99.20
4809;DHT22;2418;49.930;8.606;2022-11-03T00:09:36;5.80;99.20
4809;DHT22;2418;49.930;8.606;2022-11-03T00:12:01;5.80;99.20
4809;DHT22;2418;49.930;8.606;2022-11-03T00:14:27;5.80;99.20
4809;DHT22;2418;49.930;8.606;2022-11-03T00:16:53;5.70;99.20
4809;DHT22;2418;49.930;8.606;2022-11-03T00:19:19;5.60;99.20
4809;DHT22;2418;49.930;8.606;2022-11-03T00:21:45;5.60;99.20
4809;DHT22;2418;49.930;8.606;2022-11-03T00:24:11;5.50;99.20
4809;DHT22;2418;49.930;8.606;2022-11-03T00:26:38;5.50;99.20
4809;DHT22;2418;49.930;8.606;2022-11-03T00:29:10;5.50;99.20
4809;DHT22;2418;49.930;8.606;2022-11-03T00:31:38;5.50;99.20
4809;DHT22;2418;49.930;8.606;2022-11-03T00:34:04;5.60;99.20
4809;DHT22;2418;49.930;8.606;2022-11-03T00:36:38;5.60;99.20
4809;DHT22;2418;49.930;8.606;2022-11-03T00:39:05;5.60;99.20
4809;DHT22;2418;49.930;8.606;2022-11-03T00:41:31;5.50;99.20
4809;DHT22;2418;49.930;8.606;2022-11-03T00:43:57;5.50;99.20
4809;DHT22;2418;49.930;8.606;2022-11-03T00:46:24;5.50;99.20
4809;DHT22;2418;49.930;8.606;2022-11-03T00:48:50;5.40;99.20
4809;DHT22;2418;49.930;8.606;2022-11-03T00:51:27;5.50;99.20
4809;DHT22;2418;49.930;8.606;2022-11-03T00:53:59;5.40;99.20
4809;DHT22;2418;49.930;8.606;2022-11-03T00:56:31;5.40;99.20
4809;DHT22;2418;49.930;8.606;2022-11-03T00:58:59;5.40;99.20
4809;DHT22;2418;49.930;8.606;2022-11-03T01:01:27;5.30;99.20
4809;DHT22;2418;49.930;8.606;2022-11-03T01:03:55;5.20;99.20
4809;DHT22;2418;49.930;8.606;2022-11-03T01:06:42;5.20;99.20
4809;DHT22;2418;49.930;8.606;2022-11-03T01:09:36;5.10;99.20
4809;DHT22;2418;49.930;8.606;2022-11-03T01:14:34;5.00;99.20
4809;DHT22;2418;49.930;8.606;2022-11-03T01:17:01;5.00;99.20
4809;DHT22;2418;49.930;8.606;2022-11-03T01:19:28;5.10;99.20
4809;DHT22;2418;49.930;8.606;2022-11-03T01:21:54;5.10;99.20
4809;DHT22;2418;49.930;8.606;2022-11-03T01:24:19;5.20;99.20
4809;DHT22;2418;49.930;8.606;2022-11-03T01:26:45;5.20;99.20
4809;DHT22;2418;49.930;8.606;2022-11-03T01:29:11;5.20;99.20
4809;DHT22;2418;49.930;8.606;2022-11-03T01:31:36;5.10;99.20
4809;DHT22;2418;49.930;8.606;2022-11-03T01:34:02;5.10;99.20
4809;DHT22;2418;49.930;8.606;2022-11-03T01:36:28;5.10;99.20
4809;DHT22;2418;49.930;8.606;2022-11-03T01:38:54;5.10;99.20
4809;DHT22;2418;49.930;8.606;2022-11-03T01:41:23;5.10;99.20
4809;DHT22;2418;49.930;8.606;2022-11-03T01:46:47;5.00;99.20
4809;DHT22;2418;49.930;8.606;2022-11-03T01:52:19;5.10;99.20
4809;DHT22;2418;49.930;8.606;2022-11-03T01:54:50;5.10;99.20
4809;DHT22;2418;49.930;8.606;2022-11-03T01:57:23;5.00;99.20
4809;DHT22;2418;49.930;8.606;2022-11-03T01:59:49;5.10;99.20
4809;DHT22;2418;49.930;8.606;2022-11-03T02:02:16;5.00;99.20
4809;DHT22;2418;49.930;8.606;2022-11-03T02:04:42;5.00;99.20
4809;DHT22;2418;49.930;8.606;2022-11-03T02:07:16;5.00;99.20
4809;DHT22;2418;49.930;8.606;2022-11-03T02:09:43;5.00;99.20
4809;DHT22;2418;49.930;8.606;2022-11-03T02:12:09;5.00;99.20
4809;DHT22;2418;49.930;8.606;2022-11-03T02:14:41;5.00;99.20
4809;DHT22;2418;49.930;8.606;2022-11-03T02:17:09;4.90;99.20
4809;DHT22;2418;49.930;8.606;2022-11-03T02:27:34;5.00;99.20
4809;DHT22;2418;49.930;8.606;2022-11-03T02:30:00;5.00;99.20
4809;DHT22;2418;49.930;8.606;2022-11-03T02:32:35;5.00;99.20
4809;DHT22;2418;49.930;8.606;2022-11-03T02:35:20;5.00;99.20
4809;DHT22;2418;49.930;8.606;2022-11-03T02:37:49;4.90;99.20
4809;DHT22;2418;49.930;8.606;2022-11-03T02:40:24;4.90;99.20
4809;DHT22;2418;49.930;8.606;2022-11-03T02:42:51;4.90;99.20
4809;DHT22;2418;49.930;8.606;2022-11-03T02:45:19;4.90;99.20
4809;DHT22;2418;49.930;8.606;2022-11-03T02:47:48;4.80;99.20
4809;DHT22;2418;49.930;8.606;2022-11-03T02:50:15;4.80;99.20
4809;DHT22;2418;49.930;8.606;2022-11-03T02:52:46;4.80;99.20
4809;DHT22;2418;49.930;8.606;2022-11-03T02:58:16;4.70;99.20
4809;DHT22;2418;49.930;8.606;2022-11-03T03:03:21;4.60;99.20
4809;DHT22;2418;49.930;8.606;2022-11-03T03:05:49;4.60;99.20
4809;DHT22;2418;49.930;8.606;2022-11-03T03:08:17;4.60;99.20
4809;DHT22;2418;49.930;8.606;2022-11-03T03:10:45;4.60;99.20
4809;DHT22;2418;49.930;8.606;2022-11-03T03:13:16;4.60;99.20
4809;DHT22;2418;49.930;8.606;2022-11-03T03:18:24;4.50;99.20
4809;DHT22;2418;49.930;8.606;2022-11-03T03:20:59;4.50;99.20
4809;DHT22;2418;49.930;8.606;2022-11-03T03:23:30;4.50;99.20
4809;DHT22;2418;49.930;8.606;2022-11-03T03:26:09;4.50;99.20
4809;DHT22;2418;49.930;8.606;2022-11-03T03:28:43;4.50;99.20
4809;DHT22;2418;49.930;8.606;2022-11-03T03:31:13;4.40;99.20
4809;DHT22;2418;49.930;8.606;2022-11-03T03:33:39;4.40;99.20
4809;DHT22;2418;49.930;8.606;2022-11-03T03:36:10;4.50;99.20
4809;DHT22;2418;49.930;8.606;2022-11-03T03:38:43;4.50;99.20
4809;DHT22;2418;49.930;8.606;2022-11-03T03:41:13;4.40;99.20
4809;DHT22;2418;49.930;8.606;2022-11-03T03:43:50;4.40;99.20
4809;DHT22;2418;49.930;8.606;2022-11-03T03:46:20;4.40;99.20
4809;DHT22;2418;49.930;8.606;2022-11-03T03:48:47;4.40;99.20
4809;DHT22;2418;49.930;8.606;2022-11-03T03:51:14;4.40;99.20
4809;DHT22;2418;49.930;8.606;2022-11-03T03:53:41;4.40;99.20
4809;DHT22;2418;49.930;8.606;2022-11-03T03:56:06;4.40;99.20
4809;DHT22;2418;49.930;8.606;2022-11-03T03:58:32;4.40;99.20
4809;DHT22;2418;49.930;8.606;2022-11-03T04:00:58;4.40;99.20
4809;DHT22;2418;49.930;8.606;2022-11-03T04:03:25;4.30;99.20
4809;DHT22;2418;49.930;8.606;2022-11-03T04:05:52;4.40;99.20
4809;DHT22;2418;49.930;8.606;2022-11-03T04:08:18;4.30;99.20
4809;DHT22;2418;49.930;8.606;2022-11-03T04:10:45;4.30;99.20
4809;DHT22;2418;49.930;8.606;2022-11-03T04:13:29;4.30;99.20
4809;DHT22;2418;49.930;8.606;2022-11-03T04:16:13;4.30;99.20
4809;DHT22;2418;49.930;8.606;2022-11-03T04:18:57;4.30;99.20
4809;DHT22;2418;49.930;8.606;2022-11-03T04:21:55;4.30;99.20
4809;DHT22;2418;49.930;8.606;2022-11-03T04:24:39;4.30;99.20
4809;DHT22;2418;49.930;8.606;2022-11-03T04:29:47;4.20;99.20
4809;DHT22;2418;49.930;8.606;2022-11-03T04:32:17;4.20;99.20
4809;DHT22;2418;49.930;8.606;2022-11-03T04:34:45;4.20;99.20
4809;DHT22;2418;49.930;8.606;2022-11-03T04:37:12;4.20;99.20
4809;DHT22;2418;49.930;8.606;2022-11-03T04:39:38;4.20;99.20
4809;DHT22;2418;49.930;8.606;2022-11-03T04:42:18;4.20;99.20
4809;DHT22;2418;49.930;8.606;2022-11-03T04:44:47;4.20;99.20
4809;DHT22;2418;49.930;8.606;2022-11-03T04:47:15;4.20;99.20
4809;DHT22;2418;49.930;8.606;2022-11-03T04:49:42;4.20;99.20
4809;DHT22;2418;49.930;8.606;2022-11-03T04:52:15;4.10;99.20
4809;DHT22;2418;49.930;8.606;2022-11-03T04:54:42;4.20;99.20
4809;DHT22;2418;49.930;8.606;2022-11-03T04:57:11;4.20;99.20
4809;DHT22;2418;49.930;8.606;2022-11-03T04:59:37;4.10;99.20
4809;DHT22;2418;49.930;8.606;2022-11-03T05:02:08;4.10;99.20
4809;DHT22;2418;49.930;8.606;2022-11-03T05:04:35;4.10;99.20
4809;DHT22;2418;49.930;8.606;2022-11-03T05:07:01;4.00;99.20
4809;DHT22;2418;49.930;8.606;2022-11-03T05:09:29;4.00;99.20
4809;DHT22;2418;49.930;8.606;2022-11-03T05:11:55;3.90;99.20
4809;DHT22;2418;49.930;8.606;2022-11-03T05:14:25;3.90;99.20
4809;DHT22;2418;49.930;8.606;2022-11-03T05:16:52;3.90;99.20
4809;DHT22;2418;49.930;8.606;2022-11-03T05:19:25;3.90;99.20
4809;DHT22;2418;49.930;8.606;2022-11-03T05:21:52;3.90;99.20
4809;DHT22;2418;49.930;8.606;2022-11-03T05:24:20;3.90;99.20
4809;DHT22;2418;49.930;8.606;2022-11-03T05:26:47;3.90;99.20
4809;DHT22;2418;49.930;8.606;2022-11-03T05:31:59;3.90;99.20
4809;DHT22;2418;49.930;8.606;2022-11-03T05:34:35;3.90;99.20
4809;DHT22;2418;49.930;8.606;2022-11-03T05:39:49;3.90;99.20
4809;DHT22;2418;49.930;8.606;2022-11-03T05:42:29;3.90;99.20
4809;DHT22;2418;49.930;8.606;2022-11-03T05:44:56;3.90;99.20
4809;DHT22;2418;49.930;8.606;2022-11-03T05:47:32;3.90;99.20
4809;DHT22;2418;49.930;8.606;2022-11-03T05:50:08;3.90;99.20
4809;DHT22;2418;49.930;8.606;2022-11-03T05:52:36;3.90;99.20
4809;DHT22;2418;49.930;8.606;2022-11-03T05:55:02;3.90;99.20
4809;DHT22;2418;49.930;8.606;2022-11-03T05:57:29;3.90;99.20
4809;DHT22;2418;49.930;8.606;2022-11-03T05:59:55;3.90;99.20
4809;DHT22;2418;49.930;8.606;2022-11-03T06:02:37;3.90;99.20
4809;DHT22;2418;49.930;8.606;2022-11-03T06:05:17;4.00;99.20
4809;DHT22;2418;49.930;8.606;2022-11-03T06:07:43;4.00;99.20
4809;DHT22;2418;49.930;8.606;2022-11-03T06:12:45;3.90;99.20
4809;DHT22;2418;49.930;8.606;2022-11-03T06:15:23;3.90;99.20
4809;DHT22;2418;49.930;8.606;2022-11-03T06:17:51;4.00;99.20
4809;DHT22;2418;49.930;8.606;2022-11-03T06:20:21;4.00;99.20
4809;DHT22;2418;49.930;8.606;2022-11-03T06:22:47;4.00;99.20
4809;DHT22;2418;49.930;8.606;2022-11-03T06:27:44;4.00;99.20
4809;DHT22;2418;49.930;8.606;2022-11-03T06:30:29;4.00;99.20
4809;DHT22;2418;49.930;8.606;2022-11-03T06:32:59;4.10;99.20
4809;DHT22;2418;49.930;8.606;2022-11-03T06:35:27;4.10;99.20
4809;DHT22;2418;49.930;8.606;2022-11-03T06:37:55;4.10;99.20
4809;DHT22;2418;49.930;8.606;2022-11-03T06:42:48;4.20;99.20
4809;DHT22;2418;49.930;8.606;2022-11-03T06:45:20;4.20;99.20
4809;DHT22;2418;49.930;8.606;2022-11-03T06:47:46;4.30;99.20
4809;DHT22;2418;49.930;8.606;2022-11-03T06:50:25;4.40;99.20
4809;DHT22;2418;49.930;8.606;2022-11-03T06:52:52;4.50;99.20
4809;DHT22;2418;49.930;8.606;2022-11-03T06:57:46;4.70;99.20
4809;DHT22;2418;49.930;8.606;2022-11-03T07:05:27;5.00;99.20
4809;DHT22;2418;49.930;8.606;2022-11-03T07:07:56;5.20;99.20
4809;DHT22;2418;49.930;8.606;2022-11-03T07:10:28;5.30;99.20
4809;DHT22;2418;49.930;8.606;2022-11-03T07:12:55;5.30;99.20
4809;DHT22;2418;49.930;8.606;2022-11-03T07:15:31;5.50;99.20
4809;DHT22;2418;49.930;8.606;2022-11-03T07:18:00;5.60;99.20
4809;DHT22;2418;49.930;8.606;2022-11-03T07:20:27;5.70;99.20
4809;DHT22;2418;49.930;8.606;2022-11-03T07:22:54;5.80;99.20
4809;DHT22;2418;49.930;8.606;2022-11-03T07:25:21;5.90;99.20
4809;DHT22;2418;49.930;8.606;2022-11-03T07:27:49;6.00;99.20
4809;DHT22;2418;49.930;8.606;2022-11-03T07:30:33;6.00;99.20
4809;DHT22;2418;49.930;8.606;2022-11-03T07:33:08;6.20;99.20
4809;DHT22;2418;49.930;8.606;2022-11-03T07:35:42;6.30;99.20
4809;DHT22;2418;49.930;8.606;2022-11-03T07:38:13;6.40;99.20
4809;DHT22;2418;49.930;8.606;2022-11-03T07:40:40;6.50;99.20
4809;DHT22;2418;49.930;8.606;2022-11-03T07:43:21;6.60;99.20
4809;DHT22;2418;49.930;8.606;2022-11-03T07:45:51;6.70;99.20
4809;DHT22;2418;49.930;8.606;2022-11-03T07:48:22;6.80;99.20
4809;DHT22;2418;49.930;8.606;2022-11-03T07:50:50;6.90;99.20
4809;DHT22;2418;49.930;8.606;2022-11-03T07:53:43;7.10;99.20
4809;DHT22;2418;49.930;8.606;2022-11-03T07:56:19;7.20;99.20
4809;DHT22;2418;49.930;8.606;2022-11-03T07:58:48;7.40;99.20
4809;DHT22;2418;49.930;8.606;2022-11-03T08:03:47;7.50;99.20
4809;DHT22;2418;49.930;8.606;2022-11-03T08:06:13;7.60;99.20
4809;DHT22;2418;49.930;8.606;2022-11-03T08:08:39;7.80;99.20
4809;DHT22;2418;49.930;8.606;2022-11-03T08:11:05;8.00;99.20
4809;DHT22;2418;49.930;8.606;2022-11-03T08:13:31;8.20;99.20
4809;DHT22;2418;49.930;8.606;2022-11-03T08:15:57;8.30;99.20
4809;DHT22;2418;49.930;8.606;2022-11-03T08:18:22;8.40;99.20
4809;DHT22;2418;49.930;8.606;2022-11-03T08:20:48;8.40;99.20
4809;DHT22;2418;49.930;8.606;2022-11-03T08:23:15;8.50;99.20
4809;DHT22;2418;49.930;8.606;2022-11-03T08:25:41;8.60;99.20
4809;DHT22;2418;49.930;8.606;2022-11-03T08:28:07;8.70;99.20
4809;DHT22;2418;49.930;8.606;2022-11-03T08:30:33;8.80;99.20
4809;DHT22;2418;49.930;8.606;2022-11-03T08:32:59;8.80;99.20
4809;DHT22;2418;49.930;8.606;2022-11-03T08:35:25;8.90;99.20
4809;DHT22;2418;49.930;8.606;2022-11-03T08:37:51;9.00;99.20
4809;DHT22;2418;49.930;8.606;2022-11-03T08:40:17;9.10;99.20
4809;DHT22;2418;49.930;8.606;2022-11-03T08:42:43;9.20;99.20
4809;DHT22;2418;49.930;8.606;2022-11-03T08:45:10;9.30;99.20
4809;DHT22;2418;49.930;8.606;2022-11-03T08:47:36;9.40;99.20
4809;DHT22;2418;49.930;8.606;2022-11-03T08:50:03;9.60;99.20
4809;DHT22;2418;49.930;8.606;2022-11-03T08:52:29;9.70;99.20
4809;DHT22;2418;49.930;8.606;2022-11-03T08:54:55;9.90;99.20
4809;DHT22;2418;49.930;8.606;2022-11-03T08:57:20;10.10;99.20
4809;DHT22;2418;49.930;8.606;2022-11-03T08:59:46;10.30;99.20
4809;DHT22;2418;49.930;8.606;2022-11-03T09:02:11;10.50;99.20
4809;DHT22;2418;49.930;8.606;2022-11-03T09:04:37;10.50;99.20
4809;DHT22;2418;49.930;8.606;2022-11-03T09:07:02;10.70;99.20
4809;DHT22;2418;49.930;8.606;2022-11-03T09:09:28;10.80;99.20
4809;DHT22;2418;49.930;8.606;2022-11-03T09:11:55;11.00;99.20
4809;DHT22;2418;49.930;8.606;2022-11-03T09:14:20;11.10;99.20
4809;DHT22;2418;49.930;8.606;2022-11-03T09:16:46;11.20;99.20
4809;DHT22;2418;49.930;8.606;2022-11-03T09:19:12;11.20;99.20
4809;DHT22;2418;49.930;8.606;2022-11-03T09:21:37;11.20;99.20
4809;DHT22;2418;49.930;8.606;2022-11-03T09:24:03;11.20;99.20
4809;DHT22;2418;49.930;8.606;2022-11-03T09:26:28;11.20;99.20
4809;DHT22;2418;49.930;8.606;2022-11-03T09:28:54;11.10;99.20
4809;DHT22;2418;49.930;8.606;2022-11-03T09:31:20;11.20;99.20
4809;DHT22;2418;49.930;8.606;2022-11-03T09:33:46;11.30;99.20
4809;DHT22;2418;49.930;8.606;2022-11-03T09:36:11;11.40;99.20
4809;DHT22;2418;49.930;8.606;2022-11-03T09:38:37;11.60;99.20
4809;DHT22;2418;49.930;8.606;2022-11-03T09:41:04;11.70;99.20
4809;DHT22;2418;49.930;8.606;2022-11-03T09:43:31;11.60;99.20
4809;DHT22;2418;49.930;8.606;2022-11-03T09:45:57;11.70;99.20
4809;DHT22;2418;49.930;8.606;2022-11-03T09:48:23;11.70;99.20
4809;DHT22;2418;49.930;8.606;2022-11-03T09:50:52;11.80;99.20
4809;DHT22;2418;49.930;8.606;2022-11-03T09:53:19;11.90;99.20
4809;DHT22;2418;49.930;8.606;2022-11-03T09:55:45;12.10;99.20
4809;DHT22;2418;49.930;8.606;2022-11-03T09:58:16;12.30;99.20
4809;DHT22;2418;49.930;8.606;2022-11-03T10:00:42;12.30;99.20
4809;DHT22;2418;49.930;8.606;2022-11-03T10:03:12;12.40;99.20
4809;DHT22;2418;49.930;8.606;2022-11-03T10:05:41;12.40;99.20
4809;DHT22;2418;49.930;8.606;2022-11-03T10:08:19;12.50;99.20
4809;DHT22;2418;49.930;8.606;2022-11-03T10:10:46;12.80;99.20
4809;DHT22;2418;49.930;8.606;2022-11-03T10:13:21;13.10;99.20
4809;DHT22;2418;49.930;8.606;2022-11-03T10:15:47;13.20;99.20
4809;DHT22;2418;49.930;8.606;2022-11-03T10:18:13;13.30;99.20
4809;DHT22;2418;49.930;8.606;2022-11-03T10:20:39;13.50;99.20
4809;DHT22;2418;49.930;8.606;2022-11-03T10:23:07;13.70;99.20
4809;DHT22;2418;49.930;8.606;2022-11-03T10:25:34;13.90;99.20
4809;DHT22;2418;49.930;8.606;2022-11-03T10:28:24;13.90;99.20
4809;DHT22;2418;49.930;8.606;2022-11-03T10:31:01;13.70;99.20
4809;DHT22;2418;49.930;8.606;2022-11-03T10:33:39;13.50;99.20
4809;DHT22;2418;49.930;8.606;2022-11-03T10:38:39;13.70;99.20
4809;DHT22;2418;49.930;8.606;2022-11-03T10:43:37;13.90;99.20
4809;DHT22;2418;49.930;8.606;2022-11-03T10:48:39;13.90;99.20
4809;DHT22;2418;49.930;8.606;2022-11-03T10:51:06;14.10;99.20
4809;DHT22;2418;49.930;8.606;2022-11-03T10:53:33;14.20;99.20
4809;DHT22;2418;49.930;8.606;2022-11-03T10:55:59;14.40;99.20
4809;DHT22;2418;49.930;8.606;2022-11-03T10:58:26;14.50;99.20
4809;DHT22;2418;49.930;8.606;2022-11-03T11:00:52;14.50;99.20
4809;DHT22;2418;49.930;8.606;2022-11-03T11:03:18;14.30;99.20
4809;DHT22;2418;49.930;8.606;2022-11-03T11:05:45;14.30;99.20
4809;DHT22;2418;49.930;8.606;2022-11-03T11:08:13;14.40;99.20
4809;DHT22;2418;49.930;8.606;2022-11-03T11:10:43;14.50;99.20
4809;DHT22;2418;49.930;8.606;2022-11-03T11:15:53;14.60;99.20
4809;DHT22;2418;49.930;8.606;2022-11-03T11:21:01;14.50;99.20
4809;DHT22;2418;49.930;8.606;2022-11-03T11:23:47;14.50;99.20
4809;DHT22;2418;49.930;8.606;2022-11-03T11:31:40;14.50;99.20
4809;DHT22;2418;49.930;8.606;2022-11-03T11:36:39;14.70;99.20
4809;DHT22;2418;49.930;8.606;2022-11-03T11:42:15;14.60;99.20
4809;DHT22;2418;49.930;8.606;2022-11-03T11:47:41;14.40;99.20
4809;DHT22;2418;49.930;8.606;2022-11-03T11:55:47;14.60;99.20
4809;DHT22;2418;49.930;8.606;2022-11-03T12:00:57;14.10;99.20
4809;DHT22;2418;49.930;8.606;2022-11-03T12:03:38;14.10;99.20
4809;DHT22;2418;49.930;8.606;2022-11-03T12:06:05;14.00;99.20
4809;DHT22;2418;49.930;8.606;2022-11-03T12:08:31;14.00;99.20
4809;DHT22;2418;49.930;8.606;2022-11-03T12:10:59;13.90;99.20
4809;DHT22;2418;49.930;8.606;2022-11-03T12:13:49;14.00;99.20
4809;DHT22;2418;49.930;8.606;2022-11-03T12:16:36;14.20;99.20
4809;DHT22;2418;49.930;8.606;2022-11-03T12:19:40;14.20;99.20
4809;DHT22;2418;49.930;8.606;2022-11-03T12:24:59;14.20;99.20
4809;DHT22;2418;49.930;8.606;2022-11-03T12:29:58;14.50;99.20
4809;DHT22;2418;49.930;8.606;2022-11-03T12:32:25;14.60;99.20
4809;DHT22;2418;49.930;8.606;2022-11-03T12:34:50;14.60;99.20
4809;DHT22;2418;49.930;8.606;2022-11-03T12:37:18;14.50;99.20
4809;DHT22;2418;49.930;8.606;2022-11-03T12:39:43;14.40;99.20
4809;DHT22;2418;49.930;8.606;2022-11-03T12:42:09;14.40;99.20
4809;DHT22;2418;49.930;8.606;2022-11-03T12:44:35;14.50;99.20
4809;DHT22;2418;49.930;8.606;2022-11-03T12:47:00;14.60;99.20
4809;DHT22;2418;49.930;8.606;2022-11-03T12:49:26;14.80;99.20
4809;DHT22;2418;49.930;8.606;2022-11-03T12:51:52;14.90;99.20
4809;DHT22;2418;49.930;8.606;2022-11-03T12:54:17;15.00;99.20
4809;DHT22;2418;49.930;8.606;2022-11-03T12:56:43;15.10;99.20
4809;DHT22;2418;49.930;8.606;2022-11-03T12:59:09;15.20;99.20
4809;DHT22;2418;49.930;8.606;2022-11-03T13:01:35;15.30;99.20
4809;DHT22;2418;49.930;8.606;2022-11-03T13:04:00;15.30;99.20
4809;DHT22;2418;49.930;8.606;2022-11-03T13:06:26;15.30;99.20
4809;DHT22;2418;49.930;8.606;2022-11-03T13:08:52;15.30;99.20
4809;DHT22;2418;49.930;8.606;2022-11-03T13:11:18;15.20;99.20
4809;DHT22;2418;49.930;8.606;2022-11-03T13:14:02;15.20;99.20
4809;DHT22;2418;49.930;8.606;2022-11-03T13:16:29;15.10;99.20
4809;DHT22;2418;49.930;8.606;2022-11-03T13:18:55;15.10;99.20
4809;DHT22;2418;49.930;8.606;2022-11-03T13:21:20;15.10;99.20
4809;DHT22;2418;49.930;8.606;2022-11-03T13:23:46;15.20;99.20
4809;DHT22;2418;49.930;8.606;2022-11-03T13:26:11;15.20;99.20
4809;DHT22;2418;49.930;8.606;2022-11-03T13:28:37;15.20;99.20
4809;DHT22;2418;49.930;8.606;2022-11-03T13:31:03;15.20;99.20
4809;DHT22;2418;49.930;8.606;2022-11-03T13:33:28;15.10;99.20
4809;DHT22;2418;49.930;8.606;2022-11-03T13:35:54;15.10;99.20
4809;DHT22;2418;49.930;8.606;2022-11-03T13:38:20;15.10;99.20
4809;DHT22;2418;49.930;8.606;2022-11-03T13:40:46;15.10;99.20
4809;DHT22;2418;49.930;8.606;2022-11-03T13:43:11;15.00;99.20
4809;DHT22;2418;49.930;8.606;2022-11-03T13:45:37;14.90;99.20
4809;DHT22;2418;49.930;8.606;2022-11-03T13:48:03;14.70;99.20
4809;DHT22;2418;49.930;8.606;2022-11-03T13:50:28;14.60;99.20
4809;DHT22;2418;49.930;8.606;2022-11-03T13:52:54;14.50;99.20
4809;DHT22;2418;49.930;8.606;2022-11-03T13:55:19;14.30;99.20
4809;DHT22;2418;49.930;8.606;2022-11-03T13:57:47;14.30;99.20
4809;DHT22;2418;49.930;8.606;2022-11-03T14:00:13;14.20;99.20
4809;DHT22;2418;49.930;8.606;2022-11-03T14:02:40;14.20;99.20
4809;DHT22;2418;49.930;8.606;2022-11-03T14:05:06;14.20;99.20
4809;DHT22;2418;49.930;8.606;2022-11-03T14:07:34;14.10;99.20
4809;DHT22;2418;49.930;8.606;2022-11-03T14:09:59;14.00;99.20
4809;DHT22;2418;49.930;8.606;2022-11-03T14:12:25;13.90;99.20
4809;DHT22;2418;49.930;8.606;2022-11-03T14:15:08;13.80;99.20
4809;DHT22;2418;49.930;8.606;2022-11-03T14:17:35;13.80;99.20
4809;DHT22;2418;49.930;8.606;2022-11-03T14:20:02;13.80;99.20
4809;DHT22;2418;49.930;8.606;2022-11-03T14:22:28;13.90;99.20
4809;DHT22;2418;49.930;8.606;2022-11-03T14:24:54;13.90;99.20
4809;DHT22;2418;49.930;8.606;2022-11-03T14:27:20;13.80;99.20
4809;DHT22;2418;49.930;8.606;2022-11-03T14:29:46;13.80;99.20
4809;DHT22;2418;49.930;8.606;2022-11-03T14:32:14;13.70;99.20
4809;DHT22;2418;49.930;8.606;2022-11-03T14:34:40;13.70;99.20
4809;DHT22;2418;49.930;8.606;2022-11-03T14:37:05;13.60;99.20
4809;DHT22;2418;49.930;8.606;2022-11-03T14:39:33;13.50;99.20
4809;DHT22;2418;49.930;8.606;2022-11-03T14:41:58;13.50;99.20
4809;DHT22;2418;49.930;8.606;2022-11-03T14:44:31;13.50;99.20
4809;DHT22;2418;49.930;8.606;2022-11-03T14:46:57;13.50;99.20
4809;DHT22;2418;49.930;8.606;2022-11-03T14:49:23;13.40;99.20
4809;DHT22;2418;49.930;8.606;2022-11-03T14:51:49;13.40;99.20
4809;DHT22;2418;49.930;8.606;2022-11-03T14:54:15;13.40;99.20
4809;DHT22;2418;49.930;8.606;2022-11-03T14:56:40;13.30;99.20
4809;DHT22;2418;49.930;8.606;2022-11-03T14:59:06;13.20;99.20
4809;DHT22;2418;49.930;8.606;2022-11-03T15:01:32;13.20;99.20
4809;DHT22;2418;49.930;8.606;2022-11-03T15:03:57;13.20;99.20
4809;DHT22;2418;49.930;8.606;2022-11-03T15:06:23;13.20;99.20
4809;DHT22;2418;49.930;8.606;2022-11-03T15:08:49;13.20;99.20
4809;DHT22;2418;49.930;8.606;2022-11-03T15:11:15;13.20;99.20
4809;DHT22;2418;49.930;8.606;2022-11-03T15:13:40;13.10;99.20
4809;DHT22;2418;49.930;8.606;2022-11-03T15:16:06;13.10;99.20
4809;DHT22;2418;49.930;8.606;2022-11-03T15:18:32;13.10;99.20
4809;DHT22;2418;49.930;8.606;2022-11-03T15:20:57;13.00;99.20
4809;DHT22;2418;49.930;8.606;2022-11-03T15:23:23;13.00;99.20
4809;DHT22;2418;49.930;8.606;2022-11-03T15:25:49;12.90;99.20
4809;DHT22;2418;49.930;8.606;2022-11-03T15:28:14;12.80;99.20
4809;DHT22;2418;49.930;8.606;2022-11-03T15:30:40;12.80;99.20
4809;DHT22;2418;49.930;8.606;2022-11-03T15:33:06;12.70;99.20
4809;DHT22;2418;49.930;8.606;2022-11-03T15:35:32;12.60;99.20
4809;DHT22;2418;49.930;8.606;2022-11-03T15:37:57;12.50;99.20
4809;DHT22;2418;49.930;8.606;2022-11-03T15:40:24;12.50;99.20
4809;DHT22;2418;49.930;8.606;2022-11-03T15:42:51;12.40;99.20
4809;DHT22;2418;49.930;8.606;2022-11-03T15:45:18;12.40;99.20
4809;DHT22;2418;49.930;8.606;2022-11-03T15:47:43;12.30;99.20
4809;DHT22;2418;49.930;8.606;2022-11-03T15:50:10;12.30;99.20
4809;DHT22;2418;49.930;8.606;2022-11-03T15:52:36;12.30;99.20
4809;DHT22;2418;49.930;8.606;2022-11-03T15:55:03;12.20;99.20
4809;DHT22;2418;49.930;8.606;2022-11-03T15:57:29;12.20;99.20
4809;DHT22;2418;49.930;8.606;2022-11-03T15:59:55;12.10;99.20
4809;DHT22;2418;49.930;8.606;2022-11-03T16:02:20;12.10;99.20
4809;DHT22;2418;49.930;8.606;2022-11-03T16:04:46;12.00;99.20
4809;DHT22;2418;49.930;8.606;2022-11-03T16:07:11;12.10;99.20
4809;DHT22;2418;49.930;8.606;2022-11-03T16:09:37;12.10;99.20
4809;DHT22;2418;49.930;8.606;2022-11-03T16:12:03;12.00;99.20
4809;DHT22;2418;49.930;8.606;2022-11-03T16:14:28;12.00;99.20
4809;DHT22;2418;49.930;8.606;2022-11-03T16:16:54;12.00;99.20
4809;DHT22;2418;49.930;8.606;2022-11-03T16:19:21;12.00;99.20
4809;DHT22;2418;49.930;8.606;2022-11-03T16:21:46;11.90;99.20
4809;DHT22;2418;49.930;8.606;2022-11-03T16:24:12;11.90;99.20
4809;DHT22;2418;49.930;8.606;2022-11-03T16:26:37;12.00;99.20
4809;DHT22;2418;49.930;8.606;2022-11-03T16:29:03;12.00;99.20
4809;DHT22;2418;49.930;8.606;2022-11-03T16:31:28;11.90;99.20
4809;DHT22;2418;49.930;8.606;2022-11-03T16:33:54;11.80;99.20
4809;DHT22;2418;49.930;8.606;2022-11-03T16:36:21;11.80;99.20
4809;DHT22;2418;49.930;8.606;2022-11-03T16:38:46;11.80;99.20
4809;DHT22;2418;49.930;8.606;2022-11-03T16:41:12;11.80;99.20
4809;DHT22;2418;49.930;8.606;2022-11-03T16:43:38;11.80;99.20
4809;DHT22;2418;49.930;8.606;2022-11-03T16:46:03;11.70;99.20
4809;DHT22;2418;49.930;8.606;2022-11-03T16:48:29;11.70;99.20
4809;DHT22;2418;49.930;8.606;2022-11-03T16:50:55;11.70;99.20
4809;DHT22;2418;49.930;8.606;2022-11-03T16:53:23;11.70;99.20
4809;DHT22;2418;49.930;8.606;2022-11-03T16:55:48;11.70;99.20
4809;DHT22;2418;49.930;8.606;2022-11-03T16:58:14;11.70;99.20
4809;DHT22;2418;49.930;8.606;2022-11-03T17:00:40;11.70;99.20
4809;DHT22;2418;49.930;8.606;2022-11-03T17:03:05;11.70;99.20
4809;DHT22;2418;49.930;8.606;2022-11-03T17:05:31;11.70;99.20
4809;DHT22;2418;49.930;8.606;2022-11-03T17:07:57;11.70;99.20
4809;DHT22;2418;49.930;8.606;2022-11-03T17:10:22;11.80;99.20
4809;DHT22;2418;49.930;8.606;2022-11-03T17:12:49;11.70;99.20
4809;DHT22;2418;49.930;8.606;2022-11-03T17:15:15;11.60;99.20
4809;DHT22;2418;49.930;8.606;2022-11-03T17:17:42;11.60;99.20
4809;DHT22;2418;49.930;8.606;2022-11-03T17:20:08;11.50;99.20
4809;DHT22;2418;49.930;8.606;2022-11-03T17:22:35;11.40;99.20
4809;DHT22;2418;49.930;8.606;2022-11-03T17:25:01;11.40;99.20
4809;DHT22;2418;49.930;8.606;2022-11-03T17:30:03;11.40;99.20
4809;DHT22;2418;49.930;8.606;2022-11-03T17:32:37;11.40;99.20
4809;DHT22;2418;49.930;8.606;2022-11-03T17:35:08;11.30;99.20
4809;DHT22;2418;49.930;8.606;2022-11-03T17:37:37;11.30;99.20
4809;DHT22;2418;49.930;8.606;2022-11-03T17:40:02;11.30;99.20
4809;DHT22;2418;49.930;8.606;2022-11-03T17:42:29;11.30;99.20
4809;DHT22;2418;49.930;8.606;2022-11-03T17:44:56;11.30;99.20
4809;DHT22;2418;49.930;8.606;2022-11-03T17:47:22;11.30;99.20
4809;DHT22;2418;49.930;8.606;2022-11-03T17:49:49;11.20;99.20
4809;DHT22;2418;49.930;8.606;2022-11-03T17:52:23;11.20;99.20